PWSweather.com
Personal Weather Stations
Station Observations
40SURVLA
Villa La Angostura, Villa La AngosturaAR

Villa La AngosturaVilla La AngosturaAR

Lat: -40.7307002, Lon: -71.6769804799115

Elevation: 2400

Station Type: Netatmo

Latest ConditionsUpdated 8:26:00 AM GMT-03:57 Thursday, Apr 26, 2018
Currently Today's Max Today's Min Today's Average
Temperature 51.3°F10.7°C 52.9°F11.6°C 50.9°F10.5°C 52.1°F11.2°C
Dew Point 46.8°F8.2°C 46.8°F8.2°C 34.9°F1.6°C 42.1°F5.6°C
Winds 1.8 mph N2.9 kmh N 2.5 mph NW4.0 kmh NW - 1.4 mph 2.3 kmh
Wind Gusts 6.3 mph10.1 kmh 16.8 mph27.0 kmh - -
Humidity 88% 88% 58% 74%
Pressure 29.71 in1006.1 mb 29.89 in1012.2 mb 29.70 in1005.8 mb -
Precipitation - 0.07 in1.8 mm - -
Hour Temp Dew Point Humidity Winds Wind Gusts Pressure Precip Precip Rate Daily Precip Total
08:26 AM 51.3°F10.7°C 46.8°F8.2°C 88% 1.8 mph N2.9 kmh N 6.3 mph10.1 kmh 29.71 in1006.1 mb 0.07 in1.8 mm 0.14 in3.6 mm 0.07 in1.8 mm
08:06 AM 52.0°F11.1°C 46.4°F8.0°C 85% 1.3 mph NE2.1 kmh NE 6.3 mph10.1 kmh 29.70 in1005.8 mb 0.02 in0.5 mm 0.03 in0.8 mm 0.02 in0.5 mm
07:45 AM 52.3°F11.3°C 45.5°F7.5°C 82% 1.8 mph NNW2.9 kmh NNW 6.9 mph11.1 kmh 29.70 in1005.8 mb 0.00 in0.0 mm 0.00 in0.0 mm 0.00 in0.0 mm
07:25 AM 52.3°F11.3°C 45.5°F7.5°C 82% 1.3 mph NNE2.1 kmh NNE 3.1 mph5.0 kmh 29.71 in1006.1 mb 0.00 in0.0 mm 0.00 in0.0 mm 0.00 in0.0 mm
07:04 AM 52.5°F11.4°C 45.3°F7.4°C 81% 1.3 mph N2.1 kmh N 4.9 mph7.9 kmh 29.72 in1006.4 mb 0.00 in0.0 mm 0.00 in0.0 mm 0.00 in0.0 mm
06:44 AM 52.3°F11.3°C 45.1°F7.3°C 81% 1.8 mph N2.9 kmh N 5.6 mph9.0 kmh 29.72 in1006.4 mb 0.00 in0.0 mm 0.00 in0.0 mm 0.00 in0.0 mm
06:24 AM 52.5°F11.4°C 45.3°F7.4°C 81% 1.8 mph NNE2.9 kmh NNE 6.3 mph10.1 kmh 29.73 in1006.8 mb 0.00 in0.0 mm 0.00 in0.0 mm 0.00 in0.0 mm
06:04 AM 52.7°F11.5°C 44.6°F7.0°C 79% 2.5 mph NW4.0 kmh NW 16.8 mph27.0 kmh 29.74 in1007.1 mb 0.00 in0.0 mm 0.00 in0.0 mm 0.00 in0.0 mm
05:43 AM 52.7°F11.5°C 44.6°F7.0°C 79% 1.8 mph NNW2.9 kmh NNW 6.3 mph10.1 kmh 29.75 in1007.5 mb 0.00 in0.0 mm 0.00 in0.0 mm 0.00 in0.0 mm
05:24 AM 52.7°F11.5°C 43.9°F6.6°C 77% 1.8 mph N2.9 kmh N 9.4 mph15.1 kmh 29.76 in1007.8 mb 0.00 in0.0 mm 0.00 in0.0 mm 0.00 in0.0 mm
05:03 AM 52.7°F11.5°C 43.5°F6.4°C 76% 0.7 mph NNW1.1 kmh NNW 2.5 mph4.0 kmh 29.77 in1008.1 mb 0.00 in0.0 mm 0.00 in0.0 mm 0.00 in0.0 mm
04:43 AM 52.9°F11.6°C 43.3°F6.3°C 75% 0.7 mph N1.1 kmh N 2.5 mph4.0 kmh 29.78 in1008.5 mb 0.00 in0.0 mm 0.00 in0.0 mm 0.00 in0.0 mm
04:23 AM 52.7°F11.5°C 42.8°F6.0°C 74% 1.8 mph NW2.9 kmh NW 6.9 mph11.1 kmh 29.79 in1008.8 mb 0.00 in0.0 mm 0.00 in0.0 mm 0.00 in0.0 mm
04:02 AM 52.7°F11.5°C 42.8°F6.0°C 74% 1.3 mph NW2.1 kmh NW 4.9 mph7.9 kmh 29.80 in1009.1 mb 0.00 in0.0 mm 0.00 in0.0 mm 0.00 in0.0 mm
03:43 AM 52.5°F11.4°C 42.6°F5.9°C 74% 1.3 mph NW2.1 kmh NW 5.6 mph9.0 kmh 29.80 in1009.1 mb 0.00 in0.0 mm 0.00 in0.0 mm 0.00 in0.0 mm
03:22 AM 52.5°F11.4°C 42.1°F5.6°C 73% 1.3 mph WNW2.1 kmh WNW 6.3 mph10.1 kmh 29.82 in1009.8 mb 0.00 in0.0 mm 0.00 in0.0 mm 0.00 in0.0 mm
03:02 AM 52.3°F11.3°C 41.5°F5.3°C 72% 1.3 mph NW2.1 kmh NW 4.9 mph7.9 kmh 29.83 in1010.2 mb 0.00 in0.0 mm 0.00 in0.0 mm 0.00 in0.0 mm
02:42 AM 52.2°F11.2°C 41.0°F5.0°C 71% 1.8 mph NW2.9 kmh NW 6.3 mph10.1 kmh 29.85 in1010.8 mb 0.00 in0.0 mm 0.00 in0.0 mm 0.00 in0.0 mm
02:22 AM 51.8°F11.0°C 40.3°F4.6°C 70% 1.3 mph NW2.1 kmh NW 4.3 mph6.9 kmh 29.85 in1010.8 mb 0.00 in0.0 mm 0.00 in0.0 mm 0.00 in0.0 mm
02:16 AM 51.4°F10.8°C 39.6°F4.2°C 69% 0.7 mph SSW1.1 kmh SSW 1.8 mph2.9 kmh 29.85 in1010.8 mb 0.00 in0.0 mm 0.00 in0.0 mm 0.00 in0.0 mm
01:56 AM 51.3°F10.7°C 39.4°F4.1°C 69% 1.3 mph W2.1 kmh W 6.3 mph10.1 kmh 29.86 in1011.2 mb 0.00 in0.0 mm 0.00 in0.0 mm 0.00 in0.0 mm
01:36 AM 51.1°F10.6°C 38.1°F3.4°C 66% 0.7 mph NW1.1 kmh NW 3.1 mph5.0 kmh 29.86 in1011.2 mb 0.00 in0.0 mm 0.00 in0.0 mm 0.00 in0.0 mm
01:16 AM 51.1°F10.6°C 37.2°F2.9°C 64% 1.3 mph SW2.1 kmh SW 7.4 mph11.9 kmh 29.87 in1011.5 mb 0.00 in0.0 mm 0.00 in0.0 mm 0.00 in0.0 mm
12:56 AM 51.1°F10.6°C 36.5°F2.5°C 62% 1.3 mph SW2.1 kmh SW 3.1 mph5.0 kmh 29.88 in1011.9 mb 0.00 in0.0 mm 0.00 in0.0 mm 0.00 in0.0 mm
12:36 AM 50.9°F10.5°C 35.6°F2.0°C 60% 0.7 mph SW1.1 kmh SW 3.1 mph5.0 kmh 29.88 in1011.9 mb 0.00 in0.0 mm 0.00 in0.0 mm 0.00 in0.0 mm
12:16 AM 51.1°F10.6°C 34.9°F1.6°C 58% 0.7 mph NW1.1 kmh NW 4.9 mph7.9 kmh 29.89 in1012.2 mb 0.00 in0.0 mm 0.00 in0.0 mm 0.00 in0.0 mm